createdAt,value
2023-03-15T00:01:54.914Z,92.20
2023-03-15T00:04:22.295Z,92.20
2023-03-15T00:06:49.862Z,92.20
2023-03-15T00:09:18.117Z,92.20
2023-03-15T00:11:45.436Z,92.20
2023-03-15T00:14:12.790Z,92.20
2023-03-15T00:16:40.192Z,92.20
2023-03-15T00:19:07.507Z,92.20
2023-03-15T00:21:35.692Z,92.20
2023-03-15T00:24:03.586Z,92.20
2023-03-15T00:26:30.998Z,92.20
2023-03-15T00:28:58.291Z,92.20
2023-03-15T00:31:26.592Z,92.20
2023-03-15T00:33:54.835Z,92.20
2023-03-15T00:36:23.907Z,92.20
2023-03-15T00:38:53.821Z,92.20
2023-03-15T00:41:22.333Z,92.20
2023-03-15T00:43:50.917Z,92.20
2023-03-15T00:46:20.494Z,92.20
2023-03-15T00:48:51.792Z,92.20
2023-03-15T00:51:24.108Z,92.20
2023-03-15T00:53:53.577Z,92.20
2023-03-15T00:56:24.105Z,92.20
2023-03-15T00:58:55.112Z,92.20
2023-03-15T01:01:29.658Z,92.20
2023-03-15T01:03:57.624Z,92.20
2023-03-15T01:06:27.398Z,92.20
2023-03-15T01:08:57.350Z,92.20
2023-03-15T01:11:27.416Z,92.20
2023-03-15T01:13:59.812Z,92.20
2023-03-15T01:16:27.974Z,92.20
2023-03-15T01:18:55.997Z,92.20
2023-03-15T01:21:25.002Z,92.20
2023-03-15T01:23:53.225Z,92.20
2023-03-15T01:26:20.707Z,92.20
2023-03-15T01:28:49.165Z,92.20
2023-03-15T01:31:28.120Z,92.20
2023-03-15T01:33:55.805Z,92.20
2023-03-15T01:36:23.971Z,92.20
2023-03-15T01:38:51.397Z,92.20
2023-03-15T01:41:19.847Z,92.20
2023-03-15T01:43:49.823Z,92.20
2023-03-15T01:46:35.065Z,92.20
2023-03-15T01:49:12.868Z,92.20
2023-03-15T01:51:59.572Z,92.20
2023-03-15T01:54:35.342Z,92.20
2023-03-15T01:57:06.272Z,92.20
2023-03-15T01:59:59.195Z,92.20
2023-03-15T02:02:27.497Z,92.20
2023-03-15T02:05:10.289Z,92.20
2023-03-15T02:07:41.241Z,92.20
2023-03-15T02:10:11.844Z,92.20
2023-03-15T02:12:50.473Z,92.20
2023-03-15T02:15:19.186Z,92.20
2023-03-15T02:17:48.543Z,92.20
2023-03-15T02:20:43.959Z,92.20
2023-03-15T02:23:17.834Z,92.20
2023-03-15T02:26:09.843Z,92.20
2023-03-15T02:28:37.705Z,92.20
2023-03-15T02:31:07.791Z,92.20
2023-03-15T02:33:56.183Z,92.20
2023-03-15T02:36:32.325Z,92.20
2023-03-15T02:39:00.113Z,92.20
2023-03-15T02:41:38.111Z,92.20
2023-03-15T02:44:19.270Z,92.20
2023-03-15T02:46:50.369Z,92.20
2023-03-15T02:49:18.002Z,92.20
2023-03-15T02:51:45.258Z,92.20
2023-03-15T02:54:12.614Z,92.20
2023-03-15T02:56:40.142Z,92.20
2023-03-15T02:59:07.537Z,92.20
2023-03-15T03:01:37.506Z,92.20
2023-03-15T03:04:05.513Z,92.20
2023-03-15T03:06:35.628Z,92.20
2023-03-15T03:09:03.465Z,92.20
2023-03-15T03:11:31.692Z,92.20
2023-03-15T03:13:59.903Z,92.20
2023-03-15T03:16:27.370Z,92.20
2023-03-15T03:18:55.148Z,92.20
2023-03-15T03:21:22.487Z,92.20
2023-03-15T03:23:49.756Z,92.20
2023-03-15T03:26:19.063Z,92.20
2023-03-15T03:28:48.128Z,92.20
2023-03-15T03:31:21.553Z,92.20
2023-03-15T03:33:48.905Z,92.20
2023-03-15T03:36:16.471Z,92.20
2023-03-15T03:38:54.009Z,92.20
2023-03-15T03:41:21.790Z,92.20
2023-03-15T03:43:49.247Z,92.20
2023-03-15T03:46:16.766Z,92.20
2023-03-15T03:48:44.131Z,92.20
2023-03-15T03:51:11.612Z,92.20
2023-03-15T03:53:38.933Z,92.20
2023-03-15T03:56:07.812Z,92.20
2023-03-15T03:58:35.536Z,92.20
2023-03-15T04:01:04.512Z,92.20
2023-03-15T04:03:32.331Z,92.20
2023-03-15T04:06:02.019Z,92.20
2023-03-15T04:08:29.456Z,92.20
2023-03-15T04:10:58.392Z,92.20
2023-03-15T04:13:26.215Z,92.20
2023-03-15T04:15:58.037Z,92.20
2023-03-15T04:18:26.330Z,92.20
2023-03-15T04:20:54.959Z,92.20
2023-03-15T04:23:23.834Z,92.20
2023-03-15T04:25:58.447Z,92.20
2023-03-15T04:28:26.255Z,92.20
2023-03-15T04:30:59.243Z,92.20
2023-03-15T04:33:26.753Z,92.20
2023-03-15T04:35:54.782Z,92.20
2023-03-15T04:38:27.140Z,92.20
2023-03-15T04:40:55.597Z,92.20
2023-03-15T04:43:24.969Z,92.20
2023-03-15T04:45:52.247Z,92.20
2023-03-15T04:48:19.637Z,92.20
2023-03-15T04:50:47.612Z,92.20
2023-03-15T04:53:15.131Z,92.20
2023-03-15T04:55:42.694Z,92.20
2023-03-15T04:58:10.637Z,92.20
2023-03-15T05:00:38.241Z,92.20
2023-03-15T05:03:08.706Z,92.20
2023-03-15T05:05:36.617Z,92.20
2023-03-15T05:08:04.006Z,92.20
2023-03-15T05:10:31.844Z,92.20
2023-03-15T05:13:01.448Z,92.20
2023-03-15T05:15:29.162Z,92.20
2023-03-15T05:17:56.565Z,92.20
2023-03-15T05:20:24.124Z,92.20
2023-03-15T05:22:53.464Z,92.20
2023-03-15T05:25:21.208Z,92.20
2023-03-15T05:27:49.095Z,92.20
2023-03-15T05:30:16.723Z,92.20
2023-03-15T05:32:45.129Z,92.20
2023-03-15T05:35:13.765Z,92.20
2023-03-15T05:37:43.757Z,92.20
2023-03-15T05:40:11.838Z,92.20
2023-03-15T05:42:39.206Z,92.20
2023-03-15T05:45:07.893Z,92.20
2023-03-15T05:47:35.293Z,92.20
2023-03-15T05:50:02.820Z,92.20
2023-03-15T05:52:30.537Z,92.20
2023-03-15T05:54:57.929Z,92.20
2023-03-15T05:57:25.277Z,92.20
2023-03-15T05:59:54.107Z,92.20
2023-03-15T06:02:22.526Z,92.20
2023-03-15T06:04:49.856Z,92.20
2023-03-15T06:07:17.423Z,92.20
2023-03-15T06:09:45.018Z,92.20
2023-03-15T06:12:12.468Z,92.20
2023-03-15T06:14:39.813Z,92.20
2023-03-15T06:17:07.387Z,92.20
2023-03-15T06:19:38.014Z,92.20
2023-03-15T06:22:05.456Z,92.20
2023-03-15T06:24:32.849Z,92.20
2023-03-15T06:27:00.566Z,92.20
2023-03-15T06:29:28.477Z,92.20
2023-03-15T06:31:56.426Z,92.20
2023-03-15T06:34:23.778Z,92.20
2023-03-15T06:36:52.865Z,92.20
2023-03-15T06:39:23.115Z,92.20
2023-03-15T06:41:54.124Z,92.20
2023-03-15T06:44:21.838Z,92.20
2023-03-15T06:46:49.649Z,92.20
2023-03-15T06:49:16.997Z,92.20
2023-03-15T06:51:45.693Z,92.20
2023-03-15T06:54:12.963Z,92.20
2023-03-15T06:56:40.607Z,92.20
2023-03-15T06:59:07.962Z,92.20
2023-03-15T07:01:35.453Z,92.20
2023-03-15T07:04:02.862Z,92.20
2023-03-15T07:06:30.236Z,92.20
2023-03-15T07:08:58.239Z,92.20
2023-03-15T07:11:25.871Z,92.20
2023-03-15T07:13:53.179Z,92.20
2023-03-15T07:16:20.702Z,92.20
2023-03-15T07:18:48.149Z,92.20
2023-03-15T07:21:15.737Z,92.20
2023-03-15T07:23:43.314Z,92.20
2023-03-15T07:26:10.714Z,92.20
2023-03-15T07:28:38.248Z,92.20
2023-03-15T07:31:06.881Z,92.20
2023-03-15T07:33:36.873Z,92.20
2023-03-15T07:36:06.255Z,92.20
2023-03-15T07:38:34.579Z,92.20
2023-03-15T07:41:07.348Z,92.20
2023-03-15T07:43:35.240Z,92.20
2023-03-15T07:46:02.605Z,92.20
2023-03-15T07:48:30.169Z,92.20
2023-03-15T07:50:58.262Z,92.20
2023-03-15T07:53:25.789Z,92.20
2023-03-15T07:55:53.235Z,92.20
2023-03-15T07:58:20.675Z,92.20
2023-03-15T08:00:48.692Z,92.20
2023-03-15T08:03:16.176Z,92.20
2023-03-15T08:05:43.559Z,92.00
2023-03-15T08:08:11.981Z,92.20
2023-03-15T08:10:43.641Z,92.20
2023-03-15T08:13:11.701Z,92.20
2023-03-15T08:15:40.100Z,91.90
2023-03-15T08:18:07.546Z,91.60
2023-03-15T08:20:35.182Z,91.70
2023-03-15T08:23:02.562Z,91.30
2023-03-15T08:25:30.417Z,91.40
2023-03-15T08:28:00.990Z,89.90
2023-03-15T08:30:28.527Z,90.90
2023-03-15T08:32:55.795Z,90.20
2023-03-15T08:35:23.266Z,89.10
2023-03-15T08:37:52.615Z,89.00
2023-03-15T08:40:24.261Z,89.50
2023-03-15T08:42:52.536Z,89.30
2023-03-15T08:45:20.251Z,89.10
2023-03-15T08:47:47.884Z,87.90
2023-03-15T08:50:16.744Z,88.40
2023-03-15T08:52:44.512Z,88.60
2023-03-15T08:55:14.746Z,88.20
2023-03-15T08:57:43.242Z,88.20
2023-03-15T09:00:21.795Z,88.30
2023-03-15T09:02:52.296Z,88.10
2023-03-15T09:05:21.654Z,86.80
2023-03-15T09:07:49.450Z,87.30
2023-03-15T09:10:18.125Z,85.70
2023-03-15T09:12:47.948Z,85.60
2023-03-15T09:15:16.746Z,85.70
2023-03-15T09:17:44.185Z,84.80
2023-03-15T09:20:17.369Z,82.60
2023-03-15T09:22:49.867Z,83.20
2023-03-15T09:25:17.451Z,83.40
2023-03-15T09:27:44.718Z,83.40
2023-03-15T09:30:12.645Z,85.10
2023-03-15T09:32:40.128Z,84.00
2023-03-15T09:35:09.496Z,84.20
2023-03-15T09:37:36.950Z,85.20
2023-03-15T09:40:05.076Z,83.30
2023-03-15T09:42:44.909Z,84.00
2023-03-15T09:45:49.592Z,83.30
2023-03-15T09:48:32.825Z,83.90
2023-03-15T09:51:14.285Z,84.10
2023-03-15T09:54:01.605Z,84.40
2023-03-15T09:56:40.456Z,84.00
2023-03-15T09:59:08.212Z,83.70
2023-03-15T10:01:38.580Z,84.50
2023-03-15T10:04:25.342Z,84.00
2023-03-15T10:06:56.901Z,83.80
2023-03-15T10:09:27.074Z,83.60
2023-03-15T10:12:19.770Z,83.10
2023-03-15T10:15:21.111Z,83.70
2023-03-15T10:17:53.276Z,82.90
2023-03-15T10:20:25.474Z,84.00
2023-03-15T10:23:18.324Z,83.60
2023-03-15T10:25:47.519Z,83.30
2023-03-15T10:28:28.070Z,82.60
2023-03-15T10:31:01.070Z,83.20
2023-03-15T10:33:39.759Z,83.90
2023-03-15T10:36:16.436Z,82.40
2023-03-15T10:38:45.415Z,82.80
2023-03-15T10:41:28.999Z,82.40
2023-03-15T10:44:27.351Z,82.00
2023-03-15T10:47:07.103Z,81.10
2023-03-15T10:49:41.603Z,81.20
2023-03-15T10:52:26.331Z,80.10
2023-03-15T10:55:03.968Z,80.70
2023-03-15T10:57:39.386Z,80.20
2023-03-15T11:00:27.119Z,79.60
2023-03-15T11:03:21.175Z,80.70
2023-03-15T11:05:54.119Z,81.40
2023-03-15T11:08:43.028Z,81.00
2023-03-15T11:11:11.440Z,80.80
2023-03-15T11:13:41.024Z,78.50
2023-03-15T11:16:14.237Z,78.10
2023-03-15T11:18:49.883Z,77.50
2023-03-15T11:21:19.470Z,76.90
2023-03-15T11:23:49.260Z,76.60
2023-03-15T11:26:32.224Z,75.70
2023-03-15T11:29:05.504Z,73.10
2023-03-15T11:31:35.483Z,74.00
2023-03-15T11:34:39.659Z,73.70
2023-03-15T11:37:21.789Z,75.20
2023-03-15T11:40:11.140Z,74.90
2023-03-15T11:42:58.149Z,74.80
2023-03-15T11:45:41.908Z,73.80
2023-03-15T11:48:34.333Z,72.10
2023-03-15T11:51:02.701Z,73.20
2023-03-15T11:54:06.337Z,72.40
2023-03-15T11:57:03.378Z,72.60
2023-03-15T11:59:38.956Z,73.00
2023-03-15T12:02:15.150Z,70.90
2023-03-15T12:04:45.609Z,72.20
2023-03-15T12:07:19.109Z,71.70
2023-03-15T12:10:05.331Z,73.60
2023-03-15T12:12:32.651Z,72.60
2023-03-15T12:15:12.006Z,71.60
2023-03-15T12:18:06.685Z,73.00
2023-03-15T12:20:38.349Z,74.40
2023-03-15T12:23:18.011Z,74.30
2023-03-15T12:25:55.315Z,74.30
2023-03-15T12:28:41.665Z,74.00
2023-03-15T12:31:15.469Z,73.50
2023-03-15T12:33:49.460Z,74.60
2023-03-15T12:36:40.072Z,74.50
2023-03-15T12:39:21.839Z,74.20
2023-03-15T12:41:52.172Z,74.30
2023-03-15T12:44:33.865Z,75.30
2023-03-15T12:47:03.568Z,76.00
2023-03-15T12:49:37.243Z,75.00
2023-03-15T12:52:25.010Z,73.40
2023-03-15T12:55:16.006Z,73.50
2023-03-15T12:57:54.838Z,70.70
2023-03-15T13:00:26.124Z,72.70
2023-03-15T13:03:17.047Z,72.80
2023-03-15T13:06:03.269Z,69.90
2023-03-15T13:08:48.629Z,70.00
2023-03-15T13:11:41.715Z,70.00
2023-03-15T13:14:18.458Z,70.20
2023-03-15T13:17:09.224Z,69.90
2023-03-15T13:19:51.441Z,69.30
2023-03-15T13:22:32.242Z,70.90
2023-03-15T13:25:18.193Z,69.90
2023-03-15T13:27:54.360Z,70.10
2023-03-15T13:30:39.171Z,72.40
2023-03-15T13:33:09.515Z,72.70
2023-03-15T13:35:51.076Z,71.70
2023-03-15T13:38:28.373Z,72.60
2023-03-15T13:40:57.527Z,71.50
2023-03-15T13:43:32.109Z,72.00
2023-03-15T13:46:00.109Z,72.40
2023-03-15T13:48:42.405Z,72.10
2023-03-15T13:51:33.449Z,72.40
2023-03-15T13:54:25.749Z,72.30
2023-03-15T13:57:16.745Z,71.00
2023-03-15T14:00:11.151Z,71.00
2023-03-15T14:03:07.899Z,69.90
2023-03-15T14:05:47.234Z,69.10
2023-03-15T14:08:36.843Z,67.30
2023-03-15T14:11:18.410Z,67.40
2023-03-15T14:13:53.039Z,68.00
2023-03-15T14:16:57.357Z,65.40
2023-03-15T14:19:32.765Z,66.10
2023-03-15T14:22:19.086Z,66.70
2023-03-15T14:24:55.886Z,66.50
2023-03-15T14:27:33.721Z,64.20
2023-03-15T14:30:03.086Z,63.20
2023-03-15T14:32:34.198Z,63.50
2023-03-15T14:35:01.998Z,64.20
2023-03-15T14:37:40.922Z,64.40
2023-03-15T14:40:28.558Z,64.50
2023-03-15T14:42:56.209Z,65.10
2023-03-15T14:45:23.850Z,66.00
2023-03-15T14:47:59.498Z,65.90
2023-03-15T14:50:31.160Z,67.00
2023-03-15T14:52:59.543Z,66.10
2023-03-15T14:55:35.744Z,65.70
2023-03-15T14:58:04.502Z,64.30
2023-03-15T15:00:33.973Z,64.40
2023-03-15T15:03:01.861Z,65.50
2023-03-15T15:05:33.171Z,67.00
2023-03-15T15:08:15.603Z,68.10
2023-03-15T15:10:45.998Z,68.10
2023-03-15T15:13:25.778Z,67.80
2023-03-15T15:15:56.331Z,67.60
2023-03-15T15:18:29.691Z,66.50
2023-03-15T15:21:00.257Z,65.40
2023-03-15T15:23:33.670Z,66.10
2023-03-15T15:26:04.961Z,66.20
2023-03-15T15:28:37.261Z,65.70
2023-03-15T15:31:08.025Z,65.60
2023-03-15T15:33:42.791Z,66.80
2023-03-15T15:36:36.314Z,67.40
2023-03-15T15:39:07.784Z,69.80
2023-03-15T15:41:37.015Z,70.40
2023-03-15T15:44:06.913Z,70.70
2023-03-15T15:46:39.564Z,71.60
2023-03-15T15:49:11.378Z,72.20
2023-03-15T15:51:46.167Z,73.50
2023-03-15T15:54:23.030Z,73.00
2023-03-15T15:56:53.877Z,72.60
2023-03-15T15:59:28.080Z,72.30
2023-03-15T16:02:02.233Z,72.50
2023-03-15T16:04:31.051Z,72.40
2023-03-15T16:07:02.222Z,73.50
2023-03-15T16:09:32.180Z,73.60
2023-03-15T16:11:59.564Z,73.90
2023-03-15T16:14:27.294Z,74.20
2023-03-15T16:16:59.325Z,74.10
2023-03-15T16:19:26.619Z,74.70
2023-03-15T16:21:54.841Z,75.60
2023-03-15T16:24:29.330Z,75.70
2023-03-15T16:27:01.631Z,76.60
2023-03-15T16:29:50.487Z,77.70
2023-03-15T16:32:36.887Z,77.50
2023-03-15T16:35:16.392Z,78.10
2023-03-15T16:37:44.643Z,78.70
2023-03-15T16:40:31.489Z,79.20
2023-03-15T16:42:59.271Z,79.70
2023-03-15T16:45:27.868Z,80.30
2023-03-15T16:47:56.954Z,80.70
2023-03-15T16:50:24.883Z,81.40
2023-03-15T16:52:58.501Z,81.80
2023-03-15T16:55:33.180Z,82.20
2023-03-15T16:58:03.623Z,82.50
2023-03-15T17:00:32.170Z,82.70
2023-03-15T17:03:02.904Z,83.20
2023-03-15T17:05:33.786Z,83.70
2023-03-15T17:08:01.825Z,84.00
2023-03-15T17:10:32.166Z,84.30
2023-03-15T17:13:02.258Z,84.70
2023-03-15T17:15:31.078Z,84.90
2023-03-15T17:17:58.660Z,85.10
2023-03-15T17:20:28.680Z,85.20
2023-03-15T17:23:05.062Z,85.40
2023-03-15T17:25:33.512Z,85.90
2023-03-15T17:28:01.403Z,86.10
2023-03-15T17:30:32.120Z,86.20
2023-03-15T17:32:59.865Z,86.20
2023-03-15T17:35:34.272Z,86.70
2023-03-15T17:38:04.712Z,87.20
2023-03-15T17:40:35.661Z,87.80
2023-03-15T17:43:04.904Z,88.70
2023-03-15T17:45:36.638Z,89.30
2023-03-15T17:48:04.824Z,89.90
2023-03-15T17:50:36.979Z,90.00
2023-03-15T17:53:04.247Z,89.90
2023-03-15T17:55:35.559Z,90.70
2023-03-15T17:58:04.335Z,90.70
2023-03-15T18:00:33.050Z,90.90
2023-03-15T18:03:01.714Z,91.40
2023-03-15T18:05:30.135Z,91.80
2023-03-15T18:07:59.314Z,91.90
2023-03-15T18:10:33.748Z,92.00
2023-03-15T18:13:01.888Z,92.20
2023-03-15T18:15:29.636Z,92.20
2023-03-15T18:17:57.224Z,92.20
2023-03-15T18:20:24.595Z,92.20
2023-03-15T18:22:53.050Z,92.20
2023-03-15T18:25:23.599Z,92.20
2023-03-15T18:27:51.677Z,92.20
2023-03-15T18:30:22.015Z,92.20
2023-03-15T18:32:51.066Z,92.20
2023-03-15T18:35:24.164Z,92.20
2023-03-15T18:37:55.002Z,92.20
2023-03-15T18:40:23.875Z,92.20
2023-03-15T18:42:52.346Z,92.20
2023-03-15T18:45:22.467Z,92.20
2023-03-15T18:47:50.540Z,92.20
2023-03-15T18:50:19.465Z,92.20
2023-03-15T18:52:47.467Z,92.20
2023-03-15T18:55:17.158Z,92.20
2023-03-15T18:57:46.521Z,92.20
2023-03-15T19:00:24.147Z,92.20
2023-03-15T19:02:52.475Z,92.20
2023-03-15T19:05:20.256Z,92.20
2023-03-15T19:07:48.497Z,92.20
2023-03-15T19:10:19.329Z,92.20
2023-03-15T19:12:47.591Z,92.20
2023-03-15T19:15:17.858Z,92.20
2023-03-15T19:17:50.106Z,92.20
2023-03-15T19:20:21.815Z,92.20
2023-03-15T19:22:51.051Z,92.20
2023-03-15T19:25:18.934Z,92.20
2023-03-15T19:27:46.409Z,92.20
2023-03-15T19:30:18.325Z,92.20
2023-03-15T19:32:48.333Z,92.20
2023-03-15T19:35:17.980Z,92.20
2023-03-15T19:37:45.601Z,92.20
2023-03-15T19:40:16.931Z,92.20
2023-03-15T19:42:44.654Z,92.20
2023-03-15T19:45:13.246Z,92.20
2023-03-15T19:47:41.092Z,92.20
2023-03-15T19:50:11.756Z,92.20
2023-03-15T19:52:46.116Z,92.20
2023-03-15T19:55:16.647Z,92.20
2023-03-15T19:57:45.078Z,92.20
2023-03-15T20:00:19.720Z,92.20
2023-03-15T20:02:47.955Z,92.20
2023-03-15T20:05:17.737Z,92.20
2023-03-15T20:07:46.516Z,92.20
2023-03-15T20:10:14.863Z,92.20
2023-03-15T20:12:42.997Z,92.20
2023-03-15T20:15:15.208Z,92.20
2023-03-15T20:17:42.784Z,92.20
2023-03-15T20:20:11.572Z,92.20
2023-03-15T20:22:42.243Z,92.20
2023-03-15T20:25:11.624Z,92.20
2023-03-15T20:27:39.810Z,92.20
2023-03-15T20:30:10.601Z,92.20
2023-03-15T20:32:38.524Z,92.20
2023-03-15T20:35:09.935Z,92.20
2023-03-15T20:37:40.704Z,92.20
2023-03-15T20:40:11.672Z,92.20
2023-03-15T20:42:39.545Z,92.20
2023-03-15T20:45:08.391Z,92.20
2023-03-15T20:47:36.738Z,92.20
2023-03-15T20:50:05.395Z,92.20
2023-03-15T20:52:33.219Z,92.20
2023-03-15T20:55:01.708Z,92.20
2023-03-15T20:57:29.055Z,92.20
2023-03-15T20:59:56.548Z,92.20
2023-03-15T21:02:23.859Z,92.20
2023-03-15T21:04:52.165Z,92.20
2023-03-15T21:07:20.954Z,92.20
2023-03-15T21:09:48.700Z,92.20
2023-03-15T21:12:16.092Z,92.20
2023-03-15T21:14:43.904Z,92.20
2023-03-15T21:17:11.553Z,92.20
2023-03-15T21:19:39.207Z,92.20
2023-03-15T21:22:07.737Z,92.20
2023-03-15T21:24:49.407Z,92.20
2023-03-15T21:27:21.391Z,92.20
2023-03-15T21:29:48.923Z,92.20
2023-03-15T21:32:16.241Z,92.20
2023-03-15T21:34:43.859Z,92.20
2023-03-15T21:37:11.395Z,92.20
2023-03-15T21:39:38.973Z,92.20
2023-03-15T21:42:06.464Z,92.20
2023-03-15T21:44:34.838Z,92.20
2023-03-15T21:47:04.803Z,92.20
2023-03-15T21:49:37.234Z,92.20
2023-03-15T21:52:04.486Z,92.20
2023-03-15T21:54:31.723Z,92.20
2023-03-15T21:56:59.575Z,92.20
2023-03-15T21:59:29.585Z,92.20
2023-03-15T22:01:57.614Z,92.20
2023-03-15T22:04:25.439Z,92.20
2023-03-15T22:06:53.254Z,92.20
2023-03-15T22:09:23.517Z,92.20
2023-03-15T22:11:50.973Z,92.20
2023-03-15T22:14:18.657Z,92.20
2023-03-15T22:16:46.658Z,92.20
2023-03-15T22:19:14.804Z,92.20
2023-03-15T22:21:42.564Z,92.20
2023-03-15T22:24:10.362Z,92.20
2023-03-15T22:26:39.135Z,92.20
2023-03-15T22:29:06.580Z,92.20
2023-03-15T22:31:34.140Z,92.20
2023-03-15T22:34:03.072Z,92.20
2023-03-15T22:36:35.494Z,92.20
2023-03-15T22:39:03.614Z,92.20
2023-03-15T22:41:30.946Z,92.20
2023-03-15T22:43:58.411Z,92.20
2023-03-15T22:46:26.350Z,92.20
2023-03-15T22:48:54.753Z,92.20
2023-03-15T22:51:22.216Z,92.20
2023-03-15T22:53:49.984Z,92.20
2023-03-15T22:56:17.445Z,92.20
2023-03-15T22:58:44.695Z,92.20
2023-03-15T23:01:12.025Z,92.20
2023-03-15T23:03:39.701Z,92.20
2023-03-15T23:06:07.057Z,92.20
2023-03-15T23:08:34.442Z,92.20
2023-03-15T23:11:01.820Z,92.20
2023-03-15T23:13:30.043Z,92.20
2023-03-15T23:15:57.620Z,92.20
2023-03-15T23:18:24.994Z,92.20
2023-03-15T23:20:52.292Z,92.20
2023-03-15T23:23:19.683Z,92.20
2023-03-15T23:25:47.379Z,92.20
2023-03-15T23:28:20.741Z,92.20
2023-03-15T23:30:48.542Z,92.20
2023-03-15T23:33:16.118Z,92.20
2023-03-15T23:35:43.396Z,92.20
2023-03-15T23:38:10.944Z,92.20
2023-03-15T23:40:38.512Z,92.20
2023-03-15T23:43:06.219Z,92.20
2023-03-15T23:45:34.591Z,92.20
2023-03-15T23:48:02.949Z,92.20
2023-03-15T23:50:30.950Z,92.20
2023-03-15T23:52:58.600Z,92.20
2023-03-15T23:55:26.325Z,92.20
2023-03-15T23:57:53.947Z,92.20
